首页
METAR-TAF:

METAR-TAF

机场 :

拉巴特-塞拉国际机场

拉巴特, 摩洛哥

纬度: 34-03N, 经度: 006-46W, 海拔: 84米

当前天气观测

该预报发布于29分钟前的18:00 UTC
风速16节,风向西转西南
温度 24°C
湿度 69%
气压 1012 hPa
能見度: 8000
少量云层高于1600英尺
散云层高于9000英尺

METAR: GMME 061800Z 25016KT 8000 FEW016 SCT090 24/18 Q1012 NOSIG

时间: 19:29 (18:29 UTC)

预报

该预报发布于1小时和29分钟前的17:00 UTC
预报有效从06日的 18点(UTC)到 07日的 24点(UTC)
风速10节,风向西南
能見度: 8000
散云层高于2000英尺
多云层高于8000英尺
短暂存在
从 06日的 18点(UTC)到 07日的 12点(UTC)
能見度: 4000
散云层高于1300英尺
多云层高于1600英尺

TAF: GMME 061700Z 0618/0724 22010KT 8000 SCT020 BKN080 TEMPO 0618/0712 4000 RA SCT013 BKN016

超过4000个机场的气象观测和天气预报(METAR&TAF报告)。

可查询的气象台以黄色和红色小点在地图上表示。

将鼠标移到小点上方,可查看气象台名称。

然后点击查看天气观测和预报。

如需切换地图:点击带黑十字的绿色按钮放大地图;点击带横线的绿色按钮缩小地图;或者点击绿色箭头查看邻近地区的地图。


METAR-TAF: